createdAt,value
2018-12-24T00:00:15.190Z,97059.56
2018-12-24T00:18:49.308Z,97041.66
2018-12-24T00:21:16.540Z,97020.63
2018-12-24T00:23:43.815Z,97014.73
2018-12-24T00:26:10.545Z,97012.32
2018-12-24T00:28:37.005Z,97004.54
2018-12-24T00:31:03.617Z,97000.95
2018-12-24T00:33:31.391Z,97007.45
2018-12-24T00:35:58.237Z,97007.13
2018-12-24T00:38:24.987Z,97002.57
2018-12-24T00:40:52.069Z,97001.11
2018-12-24T00:43:18.906Z,97004.68
2018-12-24T00:45:46.307Z,97003.70
2018-12-24T00:48:13.785Z,96986.91
2018-12-24T00:50:41.275Z,96973.17
2018-12-24T00:53:09.457Z,96967.33
2018-12-24T00:55:35.950Z,96969.16
2018-12-24T00:58:03.603Z,96959.72
2018-12-24T01:03:07.764Z,96948.12
2018-12-24T01:05:35.735Z,96939.61
2018-12-24T01:08:02.825Z,96923.62
2018-12-24T01:13:06.311Z,96896.88
2018-12-24T01:15:33.849Z,96906.56
2018-12-24T01:18:00.638Z,96900.55
2018-12-24T01:20:33.844Z,96900.55
2018-12-24T01:23:01.086Z,96885.66
2018-12-24T01:25:27.671Z,96881.69
2018-12-24T01:27:54.826Z,96873.05
2018-12-24T01:30:22.257Z,96860.10
2018-12-24T01:35:23.896Z,96838.72
2018-12-24T01:37:50.548Z,96846.42
2018-12-24T01:40:17.028Z,96847.66
2018-12-24T01:42:43.979Z,96835.86
2018-12-24T01:45:11.835Z,96821.67
2018-12-24T01:47:38.814Z,96811.56
2018-12-24T01:50:05.315Z,96802.33
2018-12-24T01:52:31.907Z,96793.22
2018-12-24T01:54:59.178Z,96812.59
2018-12-24T01:57:25.696Z,96787.07
2018-12-24T01:59:52.743Z,96782.80
2018-12-24T02:02:19.854Z,96785.89
2018-12-24T02:04:46.873Z,96768.66
2018-12-24T02:07:14.154Z,96772.86
2018-12-24T02:09:40.842Z,96759.37
2018-12-24T02:12:07.691Z,96733.05
2018-12-24T02:14:34.166Z,96739.23
2018-12-24T02:17:01.132Z,96731.41
2018-12-24T02:19:27.575Z,96719.36
2018-12-24T02:21:54.164Z,96728.70
2018-12-24T02:24:20.619Z,96713.88
2018-12-24T02:26:47.156Z,96706.03
2018-12-24T02:29:13.643Z,96674.65
2018-12-24T02:31:46.779Z,96660.30
2018-12-24T02:34:13.757Z,96672.84
2018-12-24T02:36:42.215Z,96679.04
2018-12-24T02:39:09.070Z,96676.31
2018-12-24T02:41:36.267Z,96661.84
2018-12-24T02:44:02.726Z,96651.89
2018-12-24T02:46:30.516Z,96641.63
2018-12-24T02:48:57.081Z,96633.16
2018-12-24T02:51:26.693Z,96626.31
2018-12-24T02:53:53.209Z,96608.75
2018-12-24T02:56:20.354Z,96612.39
2018-12-24T02:58:46.834Z,96613.09
2018-12-24T03:01:13.348Z,96603.55
2018-12-24T03:03:40.530Z,96597.32
2018-12-24T03:06:07.399Z,96580.58
2018-12-24T03:08:34.893Z,96566.14
2018-12-24T03:11:02.126Z,96556.93
2018-12-24T03:13:29.329Z,96580.58
2018-12-24T03:15:56.725Z,96584.92
2018-12-24T03:18:23.239Z,96581.42
2018-12-24T03:20:49.755Z,96552.16
2018-12-24T03:23:17.315Z,96548.69
2018-12-24T03:25:43.792Z,96551.22
2018-12-24T03:28:10.264Z,96556.59
2018-12-24T03:30:37.648Z,96546.09
2018-12-24T03:33:04.109Z,96542.66
2018-12-24T03:35:31.236Z,96526.58
2018-12-24T03:37:58.037Z,96514.11
2018-12-24T03:40:25.346Z,96498.96
2018-12-24T03:42:52.471Z,96509.84
2018-12-24T03:45:19.978Z,96485.73
2018-12-24T03:47:46.557Z,96484.29
2018-12-24T03:50:13.021Z,96452.73
2018-12-24T03:52:41.997Z,96432.67
2018-12-24T03:55:08.521Z,96433.64
2018-12-24T03:57:35.026Z,96415.84
2018-12-24T04:00:01.610Z,96412.52
2018-12-24T04:02:29.057Z,96400.03
2018-12-24T04:04:56.459Z,96384.57
2018-12-24T04:07:22.948Z,96372.40
2018-12-24T04:14:54.771Z,96363.16
2018-12-24T04:17:22.378Z,96355.54
2018-12-24T04:19:49.999Z,96363.63
2018-12-24T04:22:19.107Z,96378.79
2018-12-24T04:24:46.342Z,96377.63
2018-12-24T04:27:12.902Z,96358.17
2018-12-24T04:29:40.269Z,96343.30
2018-12-24T04:34:40.776Z,96333.81
2018-12-24T04:37:07.673Z,96327.75
2018-12-24T04:39:34.567Z,96337.84
2018-12-24T04:42:01.805Z,96342.07
2018-12-24T04:44:28.479Z,96335.86
2018-12-24T04:46:54.992Z,96324.29
2018-12-24T04:49:21.535Z,96304.42
2018-12-24T04:51:48.526Z,96319.66
2018-12-24T04:54:15.139Z,96320.55
2018-12-24T04:56:43.913Z,96300.45
2018-12-24T04:59:10.939Z,96300.55
2018-12-24T05:01:37.812Z,96297.09
2018-12-24T05:04:04.723Z,96284.03
2018-12-24T05:06:31.858Z,96302.76
2018-12-24T05:08:58.708Z,96320.37
2018-12-24T05:11:27.106Z,96333.91
2018-12-24T05:13:54.794Z,96346.23
2018-12-24T05:16:21.904Z,96370.07
2018-12-24T05:18:49.250Z,96407.10
2018-12-24T05:21:16.645Z,96429.95
2018-12-24T05:23:43.398Z,96449.67
2018-12-24T05:26:09.878Z,96461.09
2018-12-24T05:28:36.548Z,96542.12
2018-12-24T05:31:04.494Z,96514.08
2018-12-24T05:33:32.194Z,96530.34
2018-12-24T05:35:58.799Z,96501.72
2018-12-24T05:38:25.943Z,96514.04
2018-12-24T05:40:52.977Z,96529.11
2018-12-24T05:43:21.207Z,96527.52
2018-12-24T05:45:49.634Z,96532.05
2018-12-24T05:48:16.244Z,96532.70
2018-12-24T05:50:44.000Z,96531.80
2018-12-24T05:53:11.072Z,96533.13
2018-12-24T05:55:37.909Z,96544.05
2018-12-24T05:58:04.795Z,96541.48
2018-12-24T06:00:31.738Z,96545.73
2018-12-24T06:03:00.616Z,96539.75
2018-12-24T06:05:27.824Z,96541.73
2018-12-24T06:07:54.691Z,96535.17
2018-12-24T06:10:22.321Z,96523.98
2018-12-24T06:12:49.945Z,96517.22
2018-12-24T06:15:16.687Z,96532.97
2018-12-24T06:17:44.044Z,96526.20
2018-12-24T06:20:11.146Z,96545.52
2018-12-24T06:22:38.748Z,96559.17
2018-12-24T06:25:06.015Z,96572.22
2018-12-24T06:27:34.550Z,96577.70
2018-12-24T06:30:02.020Z,96587.66
2018-12-24T06:32:29.461Z,96585.47
2018-12-24T06:34:56.667Z,96577.30
2018-12-24T06:37:24.114Z,96567.09
2018-12-24T06:39:51.388Z,96562.23
2018-12-24T06:42:18.716Z,96565.58
2018-12-24T06:44:45.580Z,96575.34
2018-12-24T06:47:12.092Z,96570.61
2018-12-24T06:49:39.623Z,96575.34
2018-12-24T06:52:06.846Z,96591.63
2018-12-24T06:54:34.271Z,96599.19
2018-12-24T06:57:01.693Z,96602.89
2018-12-24T06:59:28.301Z,96614.00
2018-12-24T07:01:56.184Z,96625.98
2018-12-24T07:04:23.055Z,96639.80
2018-12-24T07:06:50.272Z,96652.33
2018-12-24T07:09:16.782Z,96662.59
2018-12-24T07:11:43.373Z,96670.58
2018-12-24T07:14:15.360Z,96682.53
2018-12-24T07:16:39.281Z,96696.25
2018-12-24T07:19:06.094Z,96696.21
2018-12-24T07:21:32.754Z,96703.69
2018-12-24T07:23:59.816Z,96718.05
2018-12-24T07:26:26.374Z,96719.46
2018-12-24T07:28:59.027Z,96725.30
2018-12-24T07:31:22.424Z,96738.50
2018-12-24T07:33:49.461Z,96745.27
2018-12-24T07:36:16.188Z,96761.50
2018-12-24T07:38:43.092Z,96772.15
2018-12-24T07:41:10.667Z,96786.14
2018-12-24T07:43:38.090Z,96798.34
2018-12-24T07:46:04.856Z,96815.27
2018-12-24T07:48:31.366Z,96829.88
2018-12-24T07:50:57.817Z,96845.63
2018-12-24T07:53:24.344Z,96864.09
2018-12-24T07:55:50.877Z,96868.80
2018-12-24T07:58:17.433Z,96870.58
2018-12-24T08:00:44.046Z,96869.06
2018-12-24T08:03:10.752Z,96898.67
2018-12-24T08:05:37.281Z,96904.27
2018-12-24T08:08:03.920Z,96937.39
2018-12-24T08:10:30.479Z,96950.61
2018-12-24T08:12:56.925Z,96963.05
2018-12-24T08:15:23.415Z,96975.91
2018-12-24T08:17:49.863Z,97002.75
2018-12-24T08:20:16.488Z,97018.56
2018-12-24T08:22:43.003Z,97037.45
2018-12-24T08:25:09.574Z,97048.25
2018-12-24T08:27:36.011Z,97058.37
2018-12-24T08:30:02.472Z,97072.05
2018-12-24T08:32:29.171Z,97072.55
2018-12-24T08:34:59.510Z,97090.67
2018-12-24T08:37:26.064Z,97088.51
2018-12-24T08:39:52.527Z,97097.98
2018-12-24T08:42:19.017Z,97106.25
2018-12-24T08:44:58.087Z,97119.48
2018-12-24T08:47:24.656Z,97126.00
2018-12-24T08:49:51.200Z,97136.17
2018-12-24T08:52:17.855Z,97153.50
2018-12-24T08:54:48.134Z,97151.88
2018-12-24T08:57:15.327Z,97159.00
2018-12-24T08:59:41.845Z,97159.57
2018-12-24T09:02:08.356Z,97173.26
2018-12-24T09:04:37.457Z,97188.88
2018-12-24T09:07:03.895Z,97197.18
2018-12-24T09:09:30.447Z,97200.14
2018-12-24T09:11:57.669Z,97186.28
2018-12-24T09:14:24.188Z,97200.88
2018-12-24T09:16:50.777Z,97207.06
2018-12-24T09:19:17.526Z,97214.00
2018-12-24T09:21:43.990Z,97218.00
2018-12-24T09:24:10.477Z,97230.77
2018-12-24T09:26:36.949Z,97241.50
2018-12-24T09:29:03.411Z,97246.58
2018-12-24T09:31:30.065Z,97262.59
2018-12-24T09:33:56.570Z,97262.75
2018-12-24T09:36:23.099Z,97259.98
2018-12-24T09:38:49.582Z,97267.55
2018-12-24T09:41:16.094Z,97280.53
2018-12-24T09:43:42.997Z,97266.63
2018-12-24T09:46:09.648Z,97277.03
2018-12-24T09:48:36.108Z,97284.67
2018-12-24T09:51:02.642Z,97282.63
2018-12-24T09:53:29.133Z,97303.63
2018-12-24T09:55:55.635Z,97304.67
2018-12-24T09:58:22.082Z,97297.47
2018-12-24T10:00:48.540Z,97303.59
2018-12-24T10:03:14.992Z,97304.11
2018-12-24T10:05:42.191Z,97309.13
2018-12-24T10:08:09.357Z,97300.27
2018-12-24T10:10:35.878Z,97314.91
2018-12-24T10:13:02.753Z,97308.72
2018-12-24T10:15:30.912Z,97315.60
2018-12-24T10:17:57.366Z,97326.09
2018-12-24T10:20:23.926Z,97338.20
2018-12-24T10:22:50.442Z,97338.20
2018-12-24T10:25:20.822Z,97347.61
2018-12-24T10:27:48.437Z,97356.13
2018-12-24T10:30:15.343Z,97339.72
2018-12-24T10:32:41.930Z,97357.34
2018-12-24T10:35:09.571Z,97354.25
2018-12-24T10:37:36.215Z,97346.92
2018-12-24T10:40:02.932Z,97353.30
2018-12-24T10:42:30.407Z,97354.15
2018-12-24T10:44:56.873Z,97365.88
2018-12-24T10:47:23.386Z,97373.05
2018-12-24T10:49:50.488Z,97382.42
2018-12-24T10:52:16.951Z,97374.42
2018-12-24T10:54:43.464Z,97376.99
2018-12-24T10:57:09.904Z,97396.58
2018-12-24T10:59:36.397Z,97390.02
2018-12-24T11:02:03.064Z,97396.11
2018-12-24T11:04:29.683Z,97408.38
2018-12-24T11:06:56.432Z,97397.39
2018-12-24T11:09:22.938Z,97396.34
2018-12-24T11:11:49.523Z,97399.53
2018-12-24T11:14:15.979Z,97419.05
2018-12-24T11:16:42.511Z,97409.98
2018-12-24T11:19:09.163Z,97417.44
2018-12-24T11:21:35.733Z,97419.19
2018-12-24T11:24:02.249Z,97433.05
2018-12-24T11:26:30.658Z,97430.17
2018-12-24T11:28:57.148Z,97453.72
2018-12-24T11:31:23.682Z,97446.57
2018-12-24T11:33:51.346Z,97447.00
2018-12-24T11:36:20.635Z,97442.81
2018-12-24T11:38:47.120Z,97444.30
2018-12-24T11:41:13.639Z,97447.70
2018-12-24T11:43:40.181Z,97441.56
2018-12-24T11:46:10.405Z,97456.50
2018-12-24T11:48:37.406Z,97455.35
2018-12-24T11:51:03.893Z,97458.70
2018-12-24T11:53:30.537Z,97473.56
2018-12-24T11:55:57.004Z,97466.24
2018-12-24T11:58:23.843Z,97478.28
2018-12-24T12:00:50.302Z,97477.98
2018-12-24T12:03:16.758Z,97490.84
2018-12-24T12:05:43.254Z,97477.16
2018-12-24T12:08:09.774Z,97480.56
2018-12-24T12:10:36.226Z,97486.75
2018-12-24T12:13:02.682Z,97490.14
2018-12-24T12:15:29.269Z,97491.05
2018-12-24T12:17:55.718Z,97495.27
2018-12-24T12:20:22.902Z,97492.63
2018-12-24T12:22:49.703Z,97485.34
2018-12-24T12:25:16.396Z,97491.14
2018-12-24T12:27:43.019Z,97498.89
2018-12-24T12:30:09.543Z,97494.78
2018-12-24T12:32:36.016Z,97505.91
2018-12-24T12:35:03.629Z,97505.39
2018-12-24T12:37:31.476Z,97512.09
2018-12-24T12:39:58.295Z,97518.59
2018-12-24T12:42:24.913Z,97512.66
2018-12-24T12:44:51.415Z,97513.22
2018-12-24T12:47:22.435Z,97528.64
2018-12-24T12:49:51.080Z,97520.73
2018-12-24T12:52:17.510Z,97527.17
2018-12-24T12:54:43.998Z,97522.20
2018-12-24T12:57:11.444Z,97534.56
2018-12-24T12:59:38.069Z,97533.36
2018-12-24T13:02:04.520Z,97527.66
2018-12-24T13:04:31.015Z,97533.48
2018-12-24T13:07:01.812Z,97535.75
2018-12-24T13:09:29.126Z,97556.19
2018-12-24T13:11:55.610Z,97555.42
2018-12-24T13:14:22.126Z,97543.41
2018-12-24T13:16:49.959Z,97567.18
2018-12-24T13:19:16.429Z,97566.77
2018-12-24T13:21:42.945Z,97567.95
2018-12-24T13:24:09.536Z,97582.73
2018-12-24T13:26:36.027Z,97582.44
2018-12-24T13:29:02.501Z,97590.80
2018-12-24T13:31:29.013Z,97598.11
2018-12-24T13:33:55.638Z,97611.05
2018-12-24T13:36:23.308Z,97631.31
2018-12-24T13:38:50.670Z,97637.20
2018-12-24T13:41:17.193Z,97641.00
2018-12-24T13:43:44.644Z,97661.41
2018-12-24T13:46:11.159Z,97671.24
2018-12-24T13:48:37.782Z,97675.72
2018-12-24T13:51:04.386Z,97672.59
2018-12-24T13:53:30.934Z,97692.18
2018-12-24T13:55:57.503Z,97688.31
2018-12-24T13:58:24.253Z,97687.65
2018-12-24T14:00:50.902Z,97698.74
2018-12-24T14:03:17.412Z,97710.96
2018-12-24T14:05:43.997Z,97714.75
2018-12-24T14:08:10.670Z,97714.67
2018-12-24T14:10:37.146Z,97702.45
2018-12-24T14:13:03.633Z,97701.09
2018-12-24T14:15:30.113Z,97710.29
2018-12-24T14:18:01.965Z,97712.14
2018-12-24T14:20:31.177Z,97725.62
2018-12-24T14:22:57.646Z,97718.48
2018-12-24T14:25:24.108Z,97712.19
2018-12-24T14:27:51.746Z,97725.52
2018-12-24T14:30:18.339Z,97737.64
2018-12-24T14:32:45.599Z,97742.59
2018-12-24T14:35:12.971Z,97750.76
2018-12-24T14:37:41.095Z,97758.94
2018-12-24T14:40:07.813Z,97759.09
2018-12-24T14:42:34.350Z,97776.00
2018-12-24T14:45:01.089Z,97776.48
2018-12-24T14:50:04.850Z,97805.89
2018-12-24T14:52:31.287Z,97805.90
2018-12-24T14:54:58.147Z,97814.66
2018-12-24T14:57:24.811Z,97815.09
2018-12-24T14:59:53.231Z,97814.02
2018-12-24T15:02:20.068Z,97820.23
2018-12-24T15:04:46.511Z,97833.09
2018-12-24T15:07:12.956Z,97837.05
2018-12-24T15:09:39.400Z,97851.45
2018-12-24T15:12:05.953Z,97852.93
2018-12-24T15:14:33.035Z,97869.26
2018-12-24T15:16:59.561Z,97863.04
2018-12-24T15:19:26.025Z,97872.13
2018-12-24T15:21:53.460Z,97884.58
2018-12-24T15:24:20.062Z,97900.58
2018-12-24T15:26:46.527Z,97900.67
2018-12-24T15:34:34.944Z,97916.97
2018-12-24T15:37:02.935Z,97914.03
2018-12-24T15:42:02.952Z,97928.75
2018-12-24T15:44:30.049Z,97928.30
2018-12-24T15:46:57.623Z,97936.45
2018-12-24T15:49:25.689Z,97935.16
2018-12-24T15:51:54.417Z,97937.78
2018-12-24T15:54:22.675Z,97943.37
2018-12-24T15:56:50.183Z,97949.77
2018-12-24T15:59:20.071Z,97959.11
2018-12-24T16:01:47.862Z,97965.33
2018-12-24T16:04:15.375Z,97973.88
2018-12-24T16:06:43.900Z,97983.88
2018-12-24T16:09:11.566Z,97975.17
2018-12-24T16:11:38.943Z,97984.88
2018-12-24T16:14:06.597Z,97986.94
2018-12-24T16:16:35.287Z,97982.72
2018-12-24T16:21:37.578Z,97998.03
2018-12-24T16:24:04.361Z,97991.30
2018-12-24T16:26:32.059Z,98003.53
2018-12-24T16:31:34.288Z,98013.41
2018-12-24T16:34:02.239Z,98012.75
2018-12-24T16:36:28.711Z,98023.50
2018-12-24T16:39:09.187Z,98025.47
2018-12-24T16:41:40.545Z,98033.31
2018-12-24T16:44:07.770Z,98041.38
2018-12-24T16:46:35.926Z,98048.91
2018-12-24T16:51:34.694Z,98060.38
2018-12-24T16:54:02.735Z,98063.33
2018-12-24T16:56:30.089Z,98074.20
2018-12-24T17:02:42.864Z,98082.06
2018-12-24T17:05:09.231Z,98092.19
2018-12-24T17:07:35.750Z,98098.02
2018-12-24T17:10:02.327Z,98099.12
2018-12-24T17:12:29.604Z,98091.67
2018-12-24T17:14:58.638Z,98087.86
2018-12-24T17:17:27.474Z,98081.44
2018-12-24T17:19:54.002Z,98081.94
2018-12-24T17:22:20.536Z,98087.72
2018-12-24T17:24:49.367Z,98083.55
2018-12-24T17:27:15.952Z,98083.36
2018-12-24T17:29:52.836Z,98079.67
2018-12-24T17:32:19.376Z,98087.86
2018-12-24T17:34:46.592Z,98094.67
2018-12-24T17:37:15.931Z,98100.50
2018-12-24T17:39:42.477Z,98101.26
2018-12-24T17:42:08.983Z,98111.98
2018-12-24T17:44:35.503Z,98110.20
2018-12-24T17:47:02.736Z,98110.56
2018-12-24T17:49:30.837Z,98110.13
2018-12-24T17:52:00.015Z,98107.91
2018-12-24T17:54:26.988Z,98103.66
2018-12-24T17:56:56.255Z,98105.98
2018-12-24T17:59:29.997Z,98115.56
2018-12-24T18:01:57.085Z,98119.03
2018-12-24T18:04:24.030Z,98125.39
2018-12-24T18:06:54.820Z,98132.46
2018-12-24T18:12:07.055Z,98146.63
2018-12-24T18:14:35.737Z,98156.27
2018-12-24T18:17:02.274Z,98163.20
2018-12-24T18:19:30.960Z,98172.05
2018-12-24T18:21:57.522Z,98181.75
2018-12-24T18:24:24.095Z,98175.44
2018-12-24T18:26:52.887Z,98183.36
2018-12-24T18:29:21.134Z,98189.47
2018-12-24T18:31:48.786Z,98189.88
2018-12-24T18:34:17.600Z,98191.81
2018-12-24T18:36:44.117Z,98200.06
2018-12-24T18:39:11.029Z,98201.52
2018-12-24T18:41:37.694Z,98194.11
2018-12-24T18:44:04.321Z,98198.23
2018-12-24T18:46:31.183Z,98203.47
2018-12-24T18:49:00.425Z,98203.66
2018-12-24T18:51:27.472Z,98217.46
2018-12-24T18:53:54.105Z,98211.81
2018-12-24T18:56:22.975Z,98216.56
2018-12-24T18:58:51.569Z,98225.33
2018-12-24T19:01:18.116Z,98224.94
2018-12-24T19:03:44.730Z,98230.49
2018-12-24T19:06:14.386Z,98230.42
2018-12-24T19:08:40.989Z,98238.45
2018-12-24T19:11:11.380Z,98250.61
2018-12-24T19:13:38.483Z,98244.72
2018-12-24T19:16:05.861Z,98252.33
2018-12-24T19:18:32.436Z,98261.29
2018-12-24T19:21:01.467Z,98266.19
2018-12-24T19:23:30.530Z,98263.00
2018-12-24T19:25:57.837Z,98267.53
2018-12-24T19:28:24.366Z,98270.68
2018-12-24T19:30:56.800Z,98281.22
2018-12-24T19:33:23.695Z,98287.91
2018-12-24T19:35:50.239Z,98284.07
2018-12-24T19:38:18.839Z,98291.73
2018-12-24T19:40:45.377Z,98294.05
2018-12-24T19:43:11.855Z,98293.86
2018-12-24T19:45:40.700Z,98308.47
2018-12-24T19:48:09.284Z,98312.22
2018-12-24T19:50:43.213Z,98319.06
2018-12-24T19:53:12.369Z,98317.16
2018-12-24T19:55:41.338Z,98326.98
2018-12-24T19:58:08.181Z,98340.30
2018-12-24T20:03:07.849Z,98341.02
2018-12-24T20:05:36.745Z,98340.30
2018-12-24T20:08:03.257Z,98340.17
2018-12-24T20:10:29.780Z,98348.70
2018-12-24T20:12:56.626Z,98342.59
2018-12-24T20:15:25.215Z,98341.98
2018-12-24T20:17:58.224Z,98339.50
2018-12-24T20:20:19.990Z,98342.18
2018-12-24T20:22:46.662Z,98342.11
2018-12-24T20:25:15.264Z,98339.37
2018-12-24T20:27:44.193Z,98346.80
2018-12-24T20:30:13.095Z,98352.42
2018-12-24T20:32:39.608Z,98354.83
2018-12-24T20:35:06.147Z,98359.78
2018-12-24T20:37:33.824Z,98363.21
2018-12-24T20:40:02.632Z,98366.16
2018-12-24T20:42:31.285Z,98371.20
2018-12-24T20:44:58.868Z,98374.93
2018-12-24T20:47:25.323Z,98375.34
2018-12-24T20:49:51.829Z,98370.03
2018-12-24T20:52:21.258Z,98374.64
2018-12-24T20:54:50.390Z,98372.09
2018-12-24T20:57:20.141Z,98395.35
2018-12-24T20:59:46.933Z,98395.63
2018-12-24T21:02:13.451Z,98395.31
2018-12-24T21:04:39.970Z,98399.45
2018-12-24T21:07:08.547Z,98406.59
2018-12-24T21:09:38.059Z,98416.52
2018-12-24T21:12:04.572Z,98423.20
2018-12-24T21:14:31.188Z,98430.39
2018-12-24T21:16:58.997Z,98439.34
2018-12-24T21:19:27.841Z,98438.13
2018-12-24T21:21:55.200Z,98443.66
2018-12-24T21:24:24.038Z,98449.92
2018-12-24T21:26:50.584Z,98457.23
2018-12-24T21:29:19.650Z,98465.89
2018-12-24T21:31:46.241Z,98470.63
2018-12-24T21:34:12.809Z,98469.02
2018-12-24T21:36:41.784Z,98464.58
2018-12-24T21:39:10.886Z,98460.19
2018-12-24T21:44:23.072Z,98442.26
2018-12-24T21:46:49.930Z,98448.03
2018-12-24T21:49:18.737Z,98447.33
2018-12-24T21:51:48.652Z,98446.66
2018-12-24T21:54:16.084Z,98444.01
2018-12-24T21:56:42.817Z,98439.42
2018-12-24T21:59:09.342Z,98435.55
2018-12-24T22:01:36.907Z,98430.93
2018-12-24T22:04:03.700Z,98435.09
2018-12-24T22:06:32.312Z,98433.36
2018-12-24T22:09:00.489Z,98425.73
2018-12-24T22:11:27.068Z,98428.42
2018-12-24T22:13:53.597Z,98443.08
2018-12-24T22:16:20.174Z,98438.45
2018-12-24T22:18:48.770Z,98441.57
2018-12-24T22:21:17.681Z,98444.77
2018-12-24T22:23:44.252Z,98443.75
2018-12-24T22:26:10.710Z,98447.45
2018-12-24T22:28:37.288Z,98433.23
2018-12-24T22:31:03.823Z,98433.75
2018-12-24T22:33:30.692Z,98429.56
2018-12-24T22:35:58.333Z,98431.78
2018-12-24T22:38:24.979Z,98444.40
2018-12-24T22:40:51.528Z,98452.53
2018-12-24T22:43:18.744Z,98450.65
2018-12-24T22:45:45.270Z,98444.53
2018-12-24T22:48:11.632Z,98454.46
2018-12-24T22:50:38.498Z,98455.05
2018-12-24T22:53:05.070Z,98443.44
2018-12-24T22:55:33.870Z,98454.47
2018-12-24T22:58:00.516Z,98450.52
2018-12-24T23:00:27.006Z,98449.62
2018-12-24T23:02:56.368Z,98441.95
2018-12-24T23:05:27.762Z,98447.71
2018-12-24T23:07:54.237Z,98436.34
2018-12-24T23:10:20.977Z,98434.22
2018-12-24T23:12:48.106Z,98440.64
2018-12-24T23:15:14.917Z,98453.80
2018-12-24T23:17:41.527Z,98436.13
2018-12-24T23:20:08.301Z,98444.41
2018-12-24T23:22:37.227Z,98445.36
2018-12-24T23:25:03.730Z,98440.16
2018-12-24T23:27:30.456Z,98434.11
2018-12-24T23:29:57.056Z,98432.49
2018-12-24T23:32:24.571Z,98419.01
2018-12-24T23:34:51.177Z,98422.43
2018-12-24T23:37:18.068Z,98427.63
2018-12-24T23:39:46.909Z,98430.81
2018-12-24T23:45:00.246Z,98425.59
2018-12-24T23:47:29.094Z,98427.39
2018-12-24T23:49:56.539Z,98435.33
2018-12-24T23:52:35.290Z,98418.87
2018-12-24T23:55:02.296Z,98427.48
2018-12-24T23:57:28.949Z,98416.96
2018-12-24T23:59:56.107Z,98429.27
